createdAt,value
2018-07-27T00:01:12.194Z,7.37
2018-07-27T00:03:40.273Z,7.28
2018-07-27T00:06:08.474Z,7.40
2018-07-27T00:08:36.459Z,7.30
2018-07-27T00:11:04.987Z,7.83
2018-07-27T00:13:33.245Z,7.90
2018-07-27T00:16:01.861Z,7.80
2018-07-27T00:18:30.995Z,7.90
2018-07-27T00:20:58.972Z,7.90
2018-07-27T00:23:27.286Z,7.58
2018-07-27T00:25:56.196Z,8.00
2018-07-27T00:28:31.051Z,7.80
2018-07-27T00:30:59.428Z,7.50
2018-07-27T00:33:27.728Z,7.80
2018-07-27T00:35:55.890Z,7.50
2018-07-27T00:38:37.837Z,7.40
2018-07-27T00:41:06.125Z,7.95
2018-07-27T00:43:34.022Z,7.40
2018-07-27T00:46:02.214Z,8.20
2018-07-27T00:48:30.394Z,7.60
2018-07-27T00:50:58.584Z,8.30
2018-07-27T00:53:27.116Z,7.70
2018-07-27T00:55:55.610Z,7.50
2018-07-27T00:58:23.991Z,7.50
2018-07-27T01:00:52.504Z,7.70
2018-07-27T01:03:20.886Z,8.18
2018-07-27T01:05:49.385Z,7.92
2018-07-27T01:08:18.154Z,7.80
2018-07-27T01:10:46.604Z,7.87
2018-07-27T01:13:15.095Z,8.20
2018-07-27T01:15:50.514Z,8.80
2018-07-27T01:18:18.980Z,8.53
2018-07-27T01:20:47.358Z,8.78
2018-07-27T01:23:16.087Z,9.15
2018-07-27T01:25:44.684Z,9.50
2018-07-27T01:28:12.991Z,9.38
2018-07-27T01:30:41.364Z,9.05
2018-07-27T01:33:09.664Z,10.20
2018-07-27T01:35:38.186Z,9.83
2018-07-27T01:38:06.421Z,10.55
2018-07-27T01:40:34.886Z,10.37
2018-07-27T01:43:03.159Z,9.90
2018-07-27T01:45:32.685Z,10.10
2018-07-27T01:48:01.004Z,10.25
2018-07-27T01:50:29.394Z,10.13
2018-07-27T01:52:57.711Z,10.28
2018-07-27T01:55:30.053Z,10.10
2018-07-27T01:57:58.692Z,10.90
2018-07-27T02:00:27.084Z,10.53
2018-07-27T02:02:55.089Z,10.25
2018-07-27T02:05:24.489Z,10.70
2018-07-27T02:07:52.777Z,10.50
2018-07-27T02:10:21.191Z,10.80
2018-07-27T02:12:49.478Z,10.20
2018-07-27T02:15:17.883Z,9.80
2018-07-27T02:17:47.016Z,9.40
2018-07-27T02:20:15.310Z,9.65
2018-07-27T02:22:43.700Z,9.70
2018-07-27T02:25:12.529Z,10.20
2018-07-27T02:27:40.898Z,9.70
2018-07-27T02:30:09.297Z,9.60
2018-07-27T02:32:38.028Z,9.68
2018-07-27T02:35:06.434Z,10.00
2018-07-27T02:37:36.154Z,10.08
2018-07-27T02:40:04.616Z,10.00
2018-07-27T02:42:32.838Z,10.43
2018-07-27T02:45:01.130Z,10.13
2018-07-27T02:47:39.148Z,9.80
2018-07-27T02:50:08.384Z,10.40
2018-07-27T02:52:36.751Z,9.90
2018-07-27T02:55:05.397Z,10.07
2018-07-27T02:57:34.919Z,9.90
2018-07-27T03:00:03.905Z,10.55
2018-07-27T03:02:31.814Z,10.53
2018-07-27T03:04:59.907Z,9.68
2018-07-27T03:07:36.387Z,10.20
2018-07-27T03:10:05.281Z,10.93
2018-07-27T03:12:33.753Z,10.60
2018-07-27T03:15:02.071Z,10.35
2018-07-27T03:17:30.469Z,10.78
2018-07-27T03:19:58.893Z,10.80
2018-07-27T03:22:27.288Z,10.70
2018-07-27T03:24:56.496Z,10.60
2018-07-27T03:27:24.707Z,11.28
2018-07-27T03:29:53.109Z,10.48
2018-07-27T03:32:29.797Z,10.75
2018-07-27T03:34:58.262Z,11.05
2018-07-27T03:37:26.456Z,10.70
2018-07-27T03:39:55.040Z,11.03
2018-07-27T03:42:24.516Z,11.28
2018-07-27T03:44:52.805Z,11.30
2018-07-27T03:47:20.901Z,11.00
2018-07-27T03:49:49.392Z,10.28
2018-07-27T03:52:18.894Z,11.00
2018-07-27T03:54:47.334Z,11.30
2018-07-27T03:57:15.931Z,10.88
2018-07-27T03:59:44.355Z,11.30
2018-07-27T04:02:14.918Z,10.70
2018-07-27T04:04:43.489Z,11.38
2018-07-27T04:07:11.833Z,11.28
2018-07-27T04:09:40.391Z,11.60
2018-07-27T04:12:08.695Z,11.95
2018-07-27T04:14:37.493Z,12.00
2018-07-27T04:17:05.987Z,11.90
2018-07-27T04:19:34.464Z,11.30
2018-07-27T04:22:02.988Z,14.03
2018-07-27T04:24:31.075Z,11.80
2018-07-27T04:26:59.356Z,11.75
2018-07-27T04:29:33.186Z,12.10
2018-07-27T04:32:01.598Z,12.30
2018-07-27T04:34:29.590Z,12.90
2018-07-27T04:36:59.239Z,13.80
2018-07-27T04:39:28.016Z,12.43
2018-07-27T04:41:56.131Z,12.47
2018-07-27T04:44:24.246Z,12.58
2018-07-27T04:46:53.953Z,13.55
2018-07-27T04:49:22.851Z,12.75
2018-07-27T04:51:51.247Z,14.20
2018-07-27T04:54:20.077Z,12.90
2018-07-27T04:56:48.291Z,12.95
2018-07-27T04:59:16.570Z,12.65
2018-07-27T05:01:45.460Z,13.80
2018-07-27T05:04:13.666Z,12.88
2018-07-27T05:06:42.206Z,14.15
2018-07-27T05:09:16.178Z,14.00
2018-07-27T05:11:44.342Z,14.10
2018-07-27T05:14:12.802Z,13.90
2018-07-27T05:16:41.258Z,13.80
2018-07-27T05:19:10.686Z,14.18
2018-07-27T05:21:39.193Z,14.28
2018-07-27T05:24:08.384Z,14.55
2018-07-27T05:26:36.693Z,14.60
2018-07-27T05:29:05.117Z,14.73
2018-07-27T05:31:33.306Z,15.08
2018-07-27T05:34:01.508Z,15.08
2018-07-27T05:36:29.946Z,15.23
2018-07-27T05:38:58.402Z,14.13
2018-07-27T05:41:35.494Z,14.90
2018-07-27T05:44:03.488Z,14.00
2018-07-27T05:46:31.815Z,14.45
2018-07-27T05:49:00.186Z,13.50
2018-07-27T05:51:28.399Z,13.87
2018-07-27T05:53:57.740Z,12.95
2018-07-27T05:56:26.129Z,12.55
2018-07-27T05:58:55.281Z,12.40
2018-07-27T06:01:25.377Z,12.60
2018-07-27T06:03:53.676Z,12.40
2018-07-27T06:06:21.938Z,11.70
2018-07-27T06:08:50.711Z,12.47
2018-07-27T06:11:19.479Z,12.78
2018-07-27T06:13:48.063Z,12.70
2018-07-27T06:16:16.478Z,12.82
2018-07-27T06:18:44.564Z,12.80
2018-07-27T06:21:13.074Z,12.85
2018-07-27T06:23:41.294Z,12.58
2018-07-27T06:26:09.878Z,11.83
2018-07-27T06:28:38.228Z,12.28
2018-07-27T06:31:06.416Z,11.88
2018-07-27T06:33:34.676Z,11.40
2018-07-27T06:36:03.112Z,7.20
2018-07-27T06:38:31.371Z,7.20
2018-07-27T06:40:59.747Z,6.50
2018-07-27T06:43:28.252Z,6.60
2018-07-27T06:45:56.261Z,6.53
2018-07-27T06:48:25.591Z,6.50
2018-07-27T06:50:53.957Z,6.25
2018-07-27T06:53:22.729Z,6.83
2018-07-27T06:55:51.113Z,6.20
2018-07-27T06:58:19.677Z,6.70
2018-07-27T07:00:47.801Z,6.13
2018-07-27T07:03:16.321Z,6.03
2018-07-27T07:05:44.779Z,6.28
2018-07-27T07:08:13.001Z,6.00
2018-07-27T07:10:41.165Z,6.05
2018-07-27T07:13:09.359Z,6.80
2018-07-27T07:15:37.674Z,6.15
2018-07-27T07:18:06.270Z,5.95
2018-07-27T07:20:34.455Z,6.60
2018-07-27T07:23:02.786Z,7.10
2018-07-27T07:25:31.166Z,6.87
2018-07-27T07:27:59.363Z,6.70
2018-07-27T07:30:27.880Z,7.10
2018-07-27T07:32:56.259Z,6.80
2018-07-27T07:35:24.364Z,6.22
2018-07-27T07:37:52.586Z,6.33
2018-07-27T07:40:21.138Z,5.50
2018-07-27T07:42:49.440Z,5.55
2018-07-27T07:45:17.660Z,5.90
2018-07-27T07:47:45.807Z,5.63
2018-07-27T07:50:14.173Z,5.90
2018-07-27T07:52:43.052Z,6.03
2018-07-27T07:55:11.149Z,6.90
2018-07-27T07:57:39.355Z,6.80
2018-07-27T08:00:08.626Z,7.00
2018-07-27T08:02:37.191Z,6.70
2018-07-27T08:05:05.563Z,7.28
2018-07-27T08:07:33.640Z,7.47
2018-07-27T08:10:02.818Z,6.50
2018-07-27T08:12:31.279Z,6.90
2018-07-27T08:14:59.744Z,6.40
2018-07-27T08:17:28.184Z,7.03
2018-07-27T08:19:56.574Z,6.47
2018-07-27T08:22:24.663Z,7.30
2018-07-27T08:24:52.542Z,7.75
2018-07-27T08:27:20.620Z,7.10
2018-07-27T08:29:49.267Z,7.17
2018-07-27T08:32:18.462Z,6.70
2018-07-27T08:34:46.679Z,6.20
2018-07-27T08:37:15.195Z,6.10
2018-07-27T08:39:43.599Z,6.30
2018-07-27T08:42:12.181Z,6.33
2018-07-27T08:44:41.351Z,5.47
2018-07-27T08:47:09.810Z,6.12
2018-07-27T08:49:38.067Z,5.80
2018-07-27T08:52:06.711Z,6.60
2018-07-27T08:54:35.081Z,6.50
2018-07-27T08:57:03.441Z,6.53
2018-07-27T08:59:31.691Z,6.72
2018-07-27T09:02:00.404Z,6.80
2018-07-27T09:04:28.773Z,7.10
2018-07-27T09:06:57.198Z,6.80
2018-07-27T09:09:25.707Z,6.97
2018-07-27T09:11:54.304Z,7.00
2018-07-27T09:14:22.768Z,6.70
2018-07-27T09:16:51.206Z,6.90
2018-07-27T09:19:19.588Z,6.83
2018-07-27T09:21:47.818Z,6.87
2018-07-27T09:24:16.388Z,7.10
2018-07-27T09:26:44.594Z,6.33
2018-07-27T09:29:12.806Z,6.62
2018-07-27T09:31:41.404Z,6.97
2018-07-27T09:34:09.615Z,5.80
2018-07-27T09:36:37.757Z,6.87
2018-07-27T09:39:08.388Z,6.90
2018-07-27T09:41:37.037Z,6.53
2018-07-27T09:44:05.234Z,6.80
2018-07-27T09:46:33.961Z,6.77
2018-07-27T09:49:02.460Z,7.37
2018-07-27T09:51:31.051Z,7.30
2018-07-27T09:53:59.325Z,7.20
2018-07-27T09:56:27.868Z,5.80
2018-07-27T09:58:56.334Z,5.70
2018-07-27T10:01:25.991Z,5.72
2018-07-27T10:03:54.790Z,6.00
2018-07-27T10:06:22.560Z,6.17
2018-07-27T10:08:51.874Z,7.15
2018-07-27T10:11:20.572Z,7.10
2018-07-27T10:13:49.202Z,7.10
2018-07-27T10:16:17.735Z,7.80
2018-07-27T10:18:46.499Z,7.92
2018-07-27T10:21:15.837Z,7.00
2018-07-27T10:23:44.135Z,6.00
2018-07-27T10:26:12.223Z,6.35
2018-07-27T10:28:40.640Z,6.30
2018-07-27T10:31:09.649Z,6.70
2018-07-27T10:33:38.075Z,6.22
2018-07-27T10:36:06.241Z,6.40
2018-07-27T10:38:34.565Z,6.30
2018-07-27T10:41:04.045Z,6.30
2018-07-27T10:43:33.405Z,6.30
2018-07-27T10:46:01.673Z,6.58
2018-07-27T10:48:31.506Z,6.40
2018-07-27T10:51:00.212Z,6.60
2018-07-27T10:53:28.484Z,7.70
2018-07-27T10:55:56.600Z,6.80
2018-07-27T10:58:25.018Z,6.90
2018-07-27T11:00:53.518Z,7.00
2018-07-27T11:03:21.890Z,6.70
2018-07-27T11:05:51.408Z,6.78
2018-07-27T11:08:20.596Z,6.37
2018-07-27T11:10:49.245Z,6.40
2018-07-27T11:13:17.753Z,6.90
2018-07-27T11:15:46.367Z,6.70
2018-07-27T11:18:14.865Z,7.08
2018-07-27T11:20:43.331Z,6.50
2018-07-27T11:23:11.959Z,6.97
2018-07-27T11:25:40.089Z,6.80
2018-07-27T11:28:08.711Z,6.87
2018-07-27T11:30:37.148Z,6.70
2018-07-27T11:33:05.891Z,6.78
2018-07-27T11:35:34.304Z,7.00
2018-07-27T11:38:02.668Z,6.70
2018-07-27T11:40:30.889Z,7.28
2018-07-27T11:42:59.236Z,7.20
2018-07-27T11:45:27.762Z,7.00
2018-07-27T11:47:56.062Z,7.83
2018-07-27T11:50:28.263Z,8.10
2018-07-27T11:52:56.860Z,8.70
2018-07-27T11:55:25.277Z,8.20
2018-07-27T11:57:53.779Z,8.40
2018-07-27T12:00:22.945Z,7.40
2018-07-27T12:02:51.271Z,8.50
2018-07-27T12:05:19.877Z,9.48
2018-07-27T12:07:50.345Z,8.45
2018-07-27T12:10:18.749Z,9.80
2018-07-27T12:12:47.214Z,10.50
2018-07-27T12:15:15.730Z,10.40
2018-07-27T12:17:44.238Z,10.70
2018-07-27T12:20:12.708Z,10.25
2018-07-27T12:22:41.590Z,9.98
2018-07-27T12:25:10.724Z,8.70
2018-07-27T12:27:39.165Z,8.23
2018-07-27T12:30:07.739Z,8.10
2018-07-27T12:32:37.392Z,7.50
2018-07-27T12:35:06.013Z,7.67
2018-07-27T12:37:34.191Z,8.10
2018-07-27T12:40:02.385Z,8.45
2018-07-27T12:42:31.747Z,8.53
2018-07-27T12:45:00.223Z,8.70
2018-07-27T12:47:28.581Z,8.18
2018-07-27T12:49:57.314Z,9.05
2018-07-27T12:52:25.818Z,7.78
2018-07-27T12:54:54.448Z,7.42
2018-07-27T12:57:22.941Z,7.95
2018-07-27T12:59:51.397Z,8.53
2018-07-27T13:02:19.902Z,7.40
2018-07-27T13:04:48.525Z,7.55
2018-07-27T13:07:17.028Z,7.58
2018-07-27T13:09:45.247Z,7.40
2018-07-27T13:12:13.521Z,7.33
2018-07-27T13:14:41.723Z,7.28
2018-07-27T13:17:10.309Z,7.60
2018-07-27T13:19:39.025Z,9.18
2018-07-27T13:22:07.823Z,8.98
2018-07-27T13:25:02.987Z,8.55
2018-07-27T13:27:04.639Z,9.03
2018-07-27T13:29:33.046Z,9.20
2018-07-27T13:32:01.723Z,9.08
2018-07-27T13:34:34.860Z,8.93
2018-07-27T13:37:03.220Z,8.93
2018-07-27T13:39:32.236Z,8.58
2018-07-27T13:42:01.374Z,9.13
2018-07-27T13:44:30.380Z,8.55
2018-07-27T13:46:58.419Z,7.90
2018-07-27T13:49:27.498Z,8.05
2018-07-27T13:51:56.192Z,8.30
2018-07-27T13:54:24.707Z,8.43
2018-07-27T13:56:53.277Z,8.60
2018-07-27T13:59:21.749Z,8.00
2018-07-27T14:01:50.079Z,7.43
2018-07-27T14:04:18.303Z,7.60
2018-07-27T14:06:50.118Z,7.50
2018-07-27T14:09:19.014Z,7.85
2018-07-27T14:11:47.370Z,7.35
2018-07-27T14:14:15.811Z,7.40
2018-07-27T14:16:44.494Z,8.00
2018-07-27T14:19:13.578Z,7.07
2018-07-27T14:21:42.160Z,7.60
2018-07-27T14:24:10.610Z,7.70
2018-07-27T14:26:40.217Z,7.45
2018-07-27T14:29:08.462Z,7.95
2018-07-27T14:31:36.845Z,8.10
2018-07-27T14:34:05.518Z,7.83
2018-07-27T14:36:33.921Z,7.22
2018-07-27T14:39:02.001Z,7.80
2018-07-27T14:41:30.309Z,8.20
2018-07-27T14:43:58.832Z,7.60
2018-07-27T14:46:27.440Z,7.75
2018-07-27T14:48:56.049Z,8.10
2018-07-27T14:51:24.754Z,7.95
2018-07-27T14:53:53.155Z,8.00
2018-07-27T14:56:21.830Z,7.60
2018-07-27T14:58:50.332Z,7.37
2018-07-27T15:01:18.756Z,7.62
2018-07-27T15:03:47.264Z,7.90
2018-07-27T15:06:15.747Z,7.90
2018-07-27T15:08:44.259Z,7.47
2018-07-27T15:11:12.255Z,7.97
2018-07-27T15:13:40.250Z,7.60
2018-07-27T15:16:08.641Z,8.00
2018-07-27T15:18:36.925Z,7.97
2018-07-27T15:21:05.539Z,7.70
2018-07-27T15:23:33.651Z,7.70
2018-07-27T15:26:02.040Z,7.60
2018-07-27T15:28:30.351Z,7.45
2018-07-27T15:30:58.981Z,8.07
2018-07-27T15:33:27.328Z,7.47
2018-07-27T15:35:55.733Z,8.13
2018-07-27T15:38:24.250Z,8.15
2018-07-27T15:40:54.055Z,8.30
2018-07-27T15:43:22.492Z,8.85
2018-07-27T15:45:50.968Z,9.18
2018-07-27T15:48:18.889Z,9.23
2018-07-27T15:50:47.470Z,8.78
2018-07-27T15:53:16.101Z,9.27
2018-07-27T15:55:44.327Z,8.90
2018-07-27T15:58:12.884Z,8.28
2018-07-27T16:00:41.576Z,8.05
2018-07-27T16:03:10.072Z,8.60
2018-07-27T16:05:38.998Z,8.83
2018-07-27T16:08:07.592Z,8.13
2018-07-27T16:10:36.186Z,8.47
2018-07-27T16:13:04.701Z,8.55
2018-07-27T16:15:33.197Z,8.30
2018-07-27T16:18:01.271Z,8.50
2018-07-27T16:20:29.675Z,8.95
2018-07-27T16:22:57.730Z,8.43
2018-07-27T16:25:25.973Z,7.90
2018-07-27T16:27:55.051Z,8.55
2018-07-27T16:30:23.390Z,8.00
2018-07-27T16:32:51.897Z,8.80
2018-07-27T16:35:20.610Z,8.08
2018-07-27T16:37:49.233Z,8.10
2018-07-27T16:40:17.900Z,8.15
2018-07-27T16:42:46.417Z,8.57
2018-07-27T16:45:14.508Z,8.95
2018-07-27T16:47:43.114Z,8.30
2018-07-27T16:50:12.322Z,8.40
2018-07-27T16:52:40.714Z,9.10
2018-07-27T16:55:09.022Z,9.25
2018-07-27T16:57:37.133Z,9.10
2018-07-27T17:00:05.632Z,8.93
2018-07-27T17:02:34.047Z,9.40
2018-07-27T17:05:02.406Z,9.10
2018-07-27T17:07:30.558Z,9.20
2018-07-27T17:09:59.336Z,8.37
2018-07-27T17:12:27.604Z,8.40
2018-07-27T17:14:56.121Z,8.43
2018-07-27T17:17:24.640Z,8.40
2018-07-27T17:19:53.218Z,8.75
2018-07-27T17:22:21.650Z,8.95
2018-07-27T17:24:50.031Z,8.75
2018-07-27T17:27:18.337Z,9.35
2018-07-27T17:29:48.276Z,9.18
2018-07-27T17:32:16.460Z,9.48
2018-07-27T17:34:44.551Z,10.05
2018-07-27T17:37:13.041Z,10.70
2018-07-27T17:39:42.361Z,10.53
2018-07-27T17:42:10.568Z,11.30
2018-07-27T17:44:38.967Z,11.40
2018-07-27T17:47:07.408Z,10.70
2018-07-27T17:49:35.980Z,10.70
2018-07-27T17:52:04.571Z,10.40
2018-07-27T17:54:32.522Z,11.33
2018-07-27T17:57:01.903Z,11.20
2018-07-27T17:59:30.296Z,11.47
2018-07-27T18:01:58.571Z,10.85
2018-07-27T18:04:26.652Z,10.33
2018-07-27T18:06:57.480Z,10.60
2018-07-27T18:09:25.925Z,10.70
2018-07-27T18:11:54.227Z,11.05
2018-07-27T18:14:24.012Z,11.00
2018-07-27T18:16:52.552Z,11.33
2018-07-27T18:19:20.635Z,10.50
2018-07-27T18:21:49.259Z,12.43
2018-07-27T18:24:17.845Z,11.83
2018-07-27T18:26:46.343Z,12.10
2018-07-27T18:29:14.657Z,11.48
2018-07-27T18:32:06.459Z,11.40
2018-07-27T18:34:34.771Z,11.60
2018-07-27T18:37:02.878Z,12.10
2018-07-27T18:39:31.692Z,12.28
2018-07-27T18:41:59.991Z,12.30
2018-07-27T18:44:28.485Z,15.63
2018-07-27T18:46:58.109Z,18.40
2018-07-27T18:49:26.400Z,17.17
2018-07-27T18:51:54.367Z,16.23
2018-07-27T18:54:22.998Z,16.25
2018-07-27T18:56:51.402Z,14.63
2018-07-27T18:59:19.692Z,14.80
2018-07-27T19:01:48.087Z,15.15
2018-07-27T19:04:18.249Z,13.80
2018-07-27T19:06:46.523Z,14.30
2018-07-27T19:09:14.809Z,13.60
2018-07-27T19:11:44.572Z,12.87
2018-07-27T19:14:18.277Z,12.70
2018-07-27T19:16:47.178Z,12.93
2018-07-27T19:19:15.260Z,14.40
2018-07-27T19:21:43.775Z,14.73
2018-07-27T19:24:13.081Z,14.18
2018-07-27T19:26:41.613Z,14.87
2018-07-27T19:29:09.777Z,14.23
2018-07-27T19:31:38.389Z,13.98
2018-07-27T19:34:07.619Z,13.28
2018-07-27T19:36:36.408Z,14.28
2018-07-27T19:39:06.186Z,15.35
2018-07-27T19:41:40.038Z,16.97
2018-07-27T19:44:08.658Z,16.55
2018-07-27T19:46:37.108Z,15.93
2018-07-27T19:49:05.519Z,15.10
2018-07-27T19:51:34.803Z,14.30
2018-07-27T19:54:03.106Z,15.50
2018-07-27T19:56:31.716Z,15.63
2018-07-27T19:58:59.803Z,15.10
2018-07-27T20:01:28.199Z,14.80
2018-07-27T20:03:56.273Z,14.28
2018-07-27T20:06:24.731Z,16.67
2018-07-27T20:08:53.609Z,15.70
2018-07-27T20:11:22.211Z,15.40
2018-07-27T20:13:50.858Z,14.70
2018-07-27T20:16:20.318Z,15.40
2018-07-27T20:18:48.585Z,13.17
2018-07-27T20:21:17.050Z,14.50
2018-07-27T20:23:45.314Z,15.70
2018-07-27T20:26:13.426Z,14.90
2018-07-27T20:28:41.934Z,15.03
2018-07-27T20:31:10.635Z,16.70
2018-07-27T20:33:39.036Z,14.80
2018-07-27T20:36:07.564Z,14.20
2018-07-27T20:38:37.050Z,12.60
2018-07-27T20:41:05.444Z,11.90
2018-07-27T20:43:33.993Z,12.30
2018-07-27T20:46:02.228Z,12.00
2018-07-27T20:48:30.369Z,13.30
2018-07-27T20:50:59.878Z,13.65
2018-07-27T20:53:31.789Z,13.25
2018-07-27T20:56:00.341Z,12.70
2018-07-27T20:58:28.842Z,13.53
2018-07-27T21:00:57.039Z,15.00
2018-07-27T21:03:25.351Z,16.65
2018-07-27T21:05:53.663Z,17.07
2018-07-27T21:08:22.377Z,17.20
2018-07-27T21:10:50.771Z,17.00
2018-07-27T21:13:19.134Z,17.67
2018-07-27T21:15:47.560Z,17.30
2018-07-27T21:18:20.361Z,16.45
2018-07-27T21:20:48.540Z,17.27
2018-07-27T21:23:16.749Z,17.75
2018-07-27T21:25:46.986Z,17.70
2018-07-27T21:28:15.382Z,17.80
2018-07-27T21:30:43.770Z,17.98
2018-07-27T21:33:13.406Z,18.80
2018-07-27T21:35:41.704Z,18.73
2018-07-27T21:38:10.318Z,18.17
2018-07-27T21:40:38.994Z,18.35
2018-07-27T21:43:07.620Z,18.42
2018-07-27T21:45:35.715Z,17.80
2018-07-27T21:48:04.252Z,17.95
2018-07-27T21:50:32.817Z,18.37
2018-07-27T21:53:01.048Z,18.25
2018-07-27T21:55:29.282Z,18.60
2018-07-27T21:57:57.990Z,18.73
2018-07-27T22:00:27.633Z,19.07
2018-07-27T22:02:56.027Z,18.10
2018-07-27T22:05:24.317Z,18.40
2018-07-27T22:07:54.667Z,17.30
2018-07-27T22:10:23.768Z,17.17
2018-07-27T22:12:52.290Z,16.37
2018-07-27T22:15:23.097Z,16.45
2018-07-27T22:17:51.522Z,15.58
2018-07-27T22:20:20.688Z,16.00
2018-07-27T22:22:49.078Z,15.58
2018-07-27T22:25:17.668Z,15.23
2018-07-27T22:27:46.893Z,15.13
2018-07-27T22:30:16.133Z,14.20
2018-07-27T22:32:44.710Z,13.70
2018-07-27T22:35:13.126Z,13.88
2018-07-27T22:37:41.419Z,14.05
2018-07-27T22:40:10.885Z,13.27
2018-07-27T22:42:39.213Z,12.70
2018-07-27T22:45:08.809Z,13.43
2018-07-27T22:47:37.780Z,13.08
2018-07-27T22:50:07.013Z,13.62
2018-07-27T22:52:37.199Z,12.90
2018-07-27T22:55:06.813Z,12.78
2018-07-27T22:57:35.459Z,12.30
2018-07-27T23:00:04.321Z,12.63
2018-07-27T23:02:32.557Z,12.60
2018-07-27T23:05:00.781Z,12.70
2018-07-27T23:07:29.152Z,13.75
2018-07-27T23:09:57.449Z,12.93
2018-07-27T23:12:25.839Z,13.00
2018-07-27T23:14:54.394Z,12.88
2018-07-27T23:17:25.018Z,13.00
2018-07-27T23:19:53.504Z,13.45
2018-07-27T23:22:21.820Z,14.20
2018-07-27T23:24:50.358Z,15.10
2018-07-27T23:27:18.905Z,14.80
2018-07-27T23:29:47.413Z,13.83
2018-07-27T23:32:15.510Z,15.08
2018-07-27T23:34:47.196Z,14.20
2018-07-27T23:37:15.600Z,13.88
2018-07-27T23:39:43.997Z,14.98
2018-07-27T23:42:13.495Z,15.48
2018-07-27T23:44:41.826Z,14.67
2018-07-27T23:47:10.293Z,14.80
2018-07-27T23:50:14.511Z,14.60
2018-07-27T23:52:42.819Z,15.70
2018-07-27T23:55:11.219Z,15.32
2018-07-27T23:57:39.509Z,15.45
